Celebrity Century — 9HJI9 — position and weather

sailwx.info

Track history (hours):
 
Tides and Currents Weather Stations Pressure Air Temp Water Temp Dewpoint Dewpoint Depression Visibility Wind Speed Wind Dir Waves Ship Positions

Celebrity Century

Last reported at 2014-Dec-20 15:31 UTC. Time now 2014-Dec-20 17:17 UTC.
Position S 41°15' E 149°05'.

Length 252 m; draft 8.1 m.

Type: Ship. MMSI: 249054000.

Date/timePositionNaut miles runAvg speedWind from/ knotsBaromVisibWave heightAir tempDewpointWater temp
2014-Dec-20 15:31S 41°15' E 149°05'2519.9
2014-Dec-20 14:16S 41°39' E 148°57'11 4.9
2014-Dec-20 12:00S 41°48' E 148°48'3249.3 140 / 131015.0 1.513.013.013.0
2014-Dec-20 11:20S 42°20' E 148°42'1618.5
2014-Dec-20 10:29S 42°34' E 148°32'1918.4
2014-Dec-20 09:28S 42°51' E 148°20'3131.9
2014-Dec-20 08:30S 43°18' E 147°60'7 6.9
2014-Dec-20 07:24S 43°17' E 147°50'1616.7
2014-Dec-20 06:29S 43°09' E 147°31'1714.6
2014-Dec-20 05:18S 42°54' E 147°21'1 1.2
2014-Dec-20 04:30S 42°53' E 147°20'0 0.0
2014-Dec-20 03:27S 42°53' E 147°20'0 0.0
2014-Dec-20 02:21S 42°53' E 147°20'0 0.0
2014-Dec-20 01:24S 42°53' E 147°20'0 0.0
2014-Dec-20 00:27S 42°53' E 147°20'0 0.0
2014-Dec-19 23:27S 42°53' E 147°20'0 0.0
2014-Dec-19 22:22S 42°53' E 147°20'0 0.0
2014-Dec-19 21:22S 42°53' E 147°20'0 0.0
2014-Dec-19 20:28S 42°53' E 147°20'1 1.4
2014-Dec-19 19:31S 42°54' E 147°22'4 4.7
2014-Dec-19 18:33S 42°58' E 147°22'10 9.8
2014-Dec-19 17:31S 43°07' E 147°29'1211.6
2014-Dec-19 16:30S 43°15' E 147°41'1110.8
2014-Dec-19 15:29S 43°18' E 147°55'1011.1
2014-Dec-19 14:32S 43°15' E 148°09'1312.5
2014-Dec-19 13:28S 43°06' E 148°22'1413.1
2014-Dec-19 12:23S 42°53' E 148°29'1113.2
2014-Dec-19 11:33S 42°42' E 148°34'1513.2
2014-Dec-19 10:26S 42°28' E 148°39'1413.3
2014-Dec-19 09:24S 42°15' E 148°42'921.3
2014-Dec-19 09:00S 42°06' E 148°42'14812.5 090 / 91013.010.8 0.514.010.5
2014-Dec-18 21:09S 40°00' E 146°59'915.0
2014-Dec-18 20:34S 39°55' E 146°50'1515.0
2014-Dec-18 19:33S 39°46' E 146°34'1515.1
2014-Dec-18 18:33S 39°37' E 146°18'1515.0
2014-Dec-18 17:33S 39°28' E 146°02'1515.2
2014-Dec-18 16:33S 39°19' E 145°47'1515.0
2014-Dec-18 15:33S 39°10' E 145°31'  
2014-Dec-16 05:33S 38°51' E 147°39'1715.9
2014-Dec-16 04:27S 38°45' E 148°01'1515.5
2014-Dec-16 03:30S 38°39' E 148°18'4814.8
2014-Dec-16 00:16S 38°13' E 149°09'1415.6
2014-Dec-15 23:21S 38°06' E 149°25'1315.7
2014-Dec-15 22:32S 37°59' E 149°39'24918.7
2014-Dec-15 09:12S 34°06' E 151°25'627.1
2014-Dec-15 09:00S 34°00' E 151°24'815.6 040 / 251010.010.8 21.018.0
2014-Dec-15 08:30S 33°53' E 151°20'78 4.1
2014-Dec-14 13:33S 33°01' E 152°30'1818.2
2014-Dec-14 12:33S 32°49' E 152°47'14519.2
2014-Dec-14 05:00S 31°12' E 154°54'58018.1 130 / 151010.110.8 21.016.4
2014-Dec-12 21:00S 24°54' E 163°12'9318.6 350 / 291012.0 1.025.025.023.0
2014-Dec-12 16:00S 23°54' E 164°30'17811.9 350 / 151012.010.8 1.023.016.9
2014-Dec-12 01:00S 22°36' E 167°24'19 2.4 050 / 81012.0 28.028.028.0
2014-Dec-11 17:00S 22°54' E 167°18'24 6.1 040 / 151012.010.8 0.522.015.8
2014-Dec-11 13:00S 23°12' E 167°00'   050 / 131013.0 23.023.026.0
Track history (hours):
 
Tides and Currents Weather Stations Pressure Air Temp Water Temp Dewpoint Dewpoint Depression Visibility Wind Speed Wind Dir Waves Ship Positions

Celebrity Century

Last reported at 2014-Dec-20 15:31 UTC. Time now 2014-Dec-20 17:17 UTC.
Position S 41°15' E 149°05'.

Length 252 m; draft 8.1 m.

Type: Ship. MMSI: 249054000.

Date/timePositionNaut miles runAvg speedWind from/ knotsBaromVisibWave heightAir tempDewpointWater temp
2014-Dec-20 15:31S 41°15' E 149°05'2519.9
2014-Dec-20 14:16S 41°39' E 148°57'11 4.9
2014-Dec-20 12:00S 41°48' E 148°48'3249.3 140 / 131015.0 1.513.013.013.0
2014-Dec-20 11:20S 42°20' E 148°42'1618.5
2014-Dec-20 10:29S 42°34' E 148°32'1918.4
2014-Dec-20 09:28S 42°51' E 148°20'3131.9
2014-Dec-20 08:30S 43°18' E 147°60'7 6.9
2014-Dec-20 07:24S 43°17' E 147°50'1616.7
2014-Dec-20 06:29S 43°09' E 147°31'1714.6
2014-Dec-20 05:18S 42°54' E 147°21'1 1.2
2014-Dec-20 04:30S 42°53' E 147°20'0 0.0
2014-Dec-20 03:27S 42°53' E 147°20'0 0.0
2014-Dec-20 02:21S 42°53' E 147°20'0 0.0
2014-Dec-20 01:24S 42°53' E 147°20'0 0.0
2014-Dec-20 00:27S 42°53' E 147°20'0 0.0
2014-Dec-19 23:27S 42°53' E 147°20'0 0.0
2014-Dec-19 22:22S 42°53' E 147°20'0 0.0
2014-Dec-19 21:22S 42°53' E 147°20'0 0.0
2014-Dec-19 20:28S 42°53' E 147°20'1 1.4
2014-Dec-19 19:31S 42°54' E 147°22'4 4.7
2014-Dec-19 18:33S 42°58' E 147°22'10 9.8
2014-Dec-19 17:31S 43°07' E 147°29'1211.6
2014-Dec-19 16:30S 43°15' E 147°41'1110.8
2014-Dec-19 15:29S 43°18' E 147°55'1011.1
2014-Dec-19 14:32S 43°15' E 148°09'1312.5
2014-Dec-19 13:28S 43°06' E 148°22'1413.1
2014-Dec-19 12:23S 42°53' E 148°29'1113.2
2014-Dec-19 11:33S 42°42' E 148°34'1513.2
2014-Dec-19 10:26S 42°28' E 148°39'1413.3
2014-Dec-19 09:24S 42°15' E 148°42'921.3
2014-Dec-19 09:00S 42°06' E 148°42'14812.5 090 / 91013.010.8 0.514.010.5
2014-Dec-18 21:09S 40°00' E 146°59'915.0
2014-Dec-18 20:34S 39°55' E 146°50'1515.0
2014-Dec-18 19:33S 39°46' E 146°34'1515.1
2014-Dec-18 18:33S 39°37' E 146°18'1515.0
2014-Dec-18 17:33S 39°28' E 146°02'1515.2
2014-Dec-18 16:33S 39°19' E 145°47'1515.0
2014-Dec-18 15:33S 39°10' E 145°31'  
2014-Dec-16 05:33S 38°51' E 147°39'1715.9
2014-Dec-16 04:27S 38°45' E 148°01'1515.5
2014-Dec-16 03:30S 38°39' E 148°18'4814.8
2014-Dec-16 00:16S 38°13' E 149°09'1415.6
2014-Dec-15 23:21S 38°06' E 149°25'1315.7
2014-Dec-15 22:32S 37°59' E 149°39'24918.7
2014-Dec-15 09:12S 34°06' E 151°25'627.1
2014-Dec-15 09:00S 34°00' E 151°24'815.6 040 / 251010.010.8 21.018.0
2014-Dec-15 08:30S 33°53' E 151°20'78 4.1
2014-Dec-14 13:33S 33°01' E 152°30'1818.2
2014-Dec-14 12:33S 32°49' E 152°47'14519.2
2014-Dec-14 05:00S 31°12' E 154°54'58018.1 130 / 151010.110.8 21.016.4
2014-Dec-12 21:00S 24°54' E 163°12'9318.6 350 / 291012.0 1.025.025.023.0
2014-Dec-12 16:00S 23°54' E 164°30'17811.9 350 / 151012.010.8 1.023.016.9
2014-Dec-12 01:00S 22°36' E 167°24'19 2.4 050 / 81012.0 28.028.028.0
2014-Dec-11 17:00S 22°54' E 167°18'24 6.1 040 / 151012.010.8 0.522.015.8
2014-Dec-11 13:00S 23°12' E 167°00'   050 / 131013.0 23.023.026.0

Dump ship's entire track history